createdAt,value
2022-08-14T00:01:58.230Z,53.50
2022-08-14T00:04:34.436Z,53.70
2022-08-14T00:07:10.802Z,54.10
2022-08-14T00:09:55.320Z,54.50
2022-08-14T00:12:33.134Z,55.30
2022-08-14T00:15:03.060Z,57.50
2022-08-14T00:17:31.306Z,58.60
2022-08-14T00:20:08.814Z,58.90
2022-08-14T00:22:57.201Z,59.30
2022-08-14T00:25:25.296Z,58.50
2022-08-14T00:28:15.539Z,60.00
2022-08-14T00:30:46.732Z,60.70
2022-08-14T00:33:16.580Z,60.70
2022-08-14T00:36:35.628Z,62.00
2022-08-14T00:38:35.136Z,61.90
2022-08-14T00:41:05.032Z,62.40
2022-08-14T00:43:33.107Z,62.60
2022-08-14T00:46:05.336Z,63.00
2022-08-14T00:48:38.311Z,62.80
2022-08-14T00:51:10.967Z,63.10
2022-08-14T00:53:39.878Z,63.50
2022-08-14T00:56:11.198Z,63.50
2022-08-14T00:58:48.245Z,63.90
2022-08-14T01:01:19.042Z,64.00
2022-08-14T01:03:52.746Z,64.20
2022-08-14T01:06:23.160Z,63.80
2022-08-14T01:08:59.580Z,63.80
2022-08-14T01:11:35.600Z,63.70
2022-08-14T01:14:25.353Z,64.20
2022-08-14T01:16:55.668Z,64.80
2022-08-14T01:19:41.655Z,65.20
2022-08-14T01:22:13.179Z,65.10
2022-08-14T01:24:47.185Z,65.90
2022-08-14T01:27:18.614Z,66.40
2022-08-14T01:29:59.259Z,66.80
2022-08-14T01:32:37.444Z,67.00
2022-08-14T01:35:17.701Z,67.60
2022-08-14T01:37:54.779Z,67.70
2022-08-14T01:40:25.701Z,67.40
2022-08-14T01:43:02.866Z,66.70
2022-08-14T01:45:31.461Z,66.60
2022-08-14T01:48:13.986Z,66.50
2022-08-14T01:50:42.790Z,66.40
2022-08-14T01:53:14.419Z,66.50
2022-08-14T01:55:42.756Z,66.80
2022-08-14T01:58:20.361Z,66.80
2022-08-14T02:00:54.223Z,66.30
2022-08-14T02:03:23.403Z,65.40
2022-08-14T02:05:51.561Z,64.20
2022-08-14T02:08:22.449Z,63.10
2022-08-14T02:11:18.886Z,62.40
2022-08-14T02:13:50.481Z,62.00
2022-08-14T02:16:22.322Z,61.90
2022-08-14T02:18:51.225Z,61.50
2022-08-14T02:21:23.077Z,61.30
2022-08-14T02:23:55.053Z,61.40
2022-08-14T02:26:29.214Z,61.20
2022-08-14T02:29:00.912Z,62.20
2022-08-14T02:31:42.560Z,62.50
2022-08-14T02:34:22.334Z,61.70
2022-08-14T02:37:03.693Z,62.20
2022-08-14T02:39:39.104Z,63.30
2022-08-14T02:42:12.787Z,64.70
2022-08-14T02:44:42.099Z,65.60
2022-08-14T02:47:14.905Z,66.90
2022-08-14T02:49:50.456Z,67.70
2022-08-14T02:52:56.024Z,68.10
2022-08-14T02:55:12.222Z,68.20
2022-08-14T02:57:51.805Z,68.00
2022-08-14T03:00:21.558Z,68.80
2022-08-14T03:02:58.951Z,69.60
2022-08-14T03:05:32.828Z,69.30
2022-08-14T03:08:08.633Z,69.70
2022-08-14T03:10:42.058Z,70.50
2022-08-14T03:13:21.276Z,70.50
2022-08-14T03:15:55.940Z,70.40
2022-08-14T03:18:31.772Z,71.10
2022-08-14T03:21:02.560Z,71.40
2022-08-14T03:23:34.079Z,71.80
2022-08-14T03:26:07.858Z,71.60
2022-08-14T03:28:36.798Z,72.40
2022-08-14T03:31:13.401Z,72.20
2022-08-14T03:33:42.067Z,72.10
2022-08-14T03:37:37.346Z,72.10
2022-08-14T03:39:15.030Z,71.90
2022-08-14T03:41:52.342Z,71.60
2022-08-14T03:45:18.932Z,71.30
2022-08-14T03:47:08.547Z,71.50
2022-08-14T03:49:42.132Z,71.50
2022-08-14T03:52:27.796Z,71.70
2022-08-14T03:54:59.670Z,72.20
2022-08-14T03:57:32.353Z,72.50
2022-08-14T04:00:04.013Z,72.30
2022-08-14T04:02:37.344Z,72.40
2022-08-14T04:05:11.895Z,72.10
2022-08-14T04:07:49.482Z,72.70
2022-08-14T04:10:31.584Z,72.60
2022-08-14T04:13:03.091Z,72.60
2022-08-14T04:15:32.038Z,73.10
2022-08-14T04:18:19.822Z,72.40
2022-08-14T04:20:54.916Z,72.40
2022-08-14T04:23:29.858Z,71.90
2022-08-14T04:26:02.822Z,71.40
2022-08-14T04:29:07.530Z,71.30
2022-08-14T04:31:24.744Z,71.10
2022-08-14T04:34:17.265Z,70.70
2022-08-14T04:37:07.293Z,70.70
2022-08-14T04:39:57.157Z,70.30
2022-08-14T04:42:47.281Z,69.40
2022-08-14T04:45:23.221Z,65.20
2022-08-14T04:48:10.152Z,63.70
2022-08-14T04:50:44.609Z,62.90
2022-08-14T04:53:14.884Z,62.50
2022-08-14T04:55:46.009Z,63.10
2022-08-14T04:58:21.939Z,63.10
2022-08-14T05:01:03.035Z,61.90
2022-08-14T05:03:33.257Z,59.90
2022-08-14T05:06:03.190Z,58.80
2022-08-14T05:08:57.352Z,58.30
2022-08-14T05:11:20.511Z,59.30
2022-08-14T05:16:38.831Z,58.20
2022-08-14T05:19:18.445Z,58.10
2022-08-14T05:22:01.343Z,57.90
2022-08-14T05:24:44.382Z,58.70
2022-08-14T05:27:12.227Z,58.20
2022-08-14T05:29:40.877Z,57.30
2022-08-14T05:32:13.452Z,58.00
2022-08-14T05:34:45.562Z,60.20
2022-08-14T05:37:15.514Z,60.80
2022-08-14T05:39:43.843Z,59.80
2022-08-14T05:42:21.534Z,60.20
2022-08-14T05:44:55.459Z,58.90
2022-08-14T05:47:29.049Z,59.90
2022-08-14T05:50:02.241Z,59.90
2022-08-14T05:52:39.070Z,60.30
2022-08-14T05:55:09.464Z,59.80
2022-08-14T05:57:47.916Z,60.00
2022-08-14T06:00:28.988Z,57.40
2022-08-14T06:03:04.154Z,58.10
2022-08-14T06:05:38.592Z,57.40
2022-08-14T06:08:31.186Z,56.30
2022-08-14T06:11:05.549Z,55.90
2022-08-14T06:13:45.344Z,55.40
2022-08-14T06:16:17.861Z,54.40
2022-08-14T06:18:52.583Z,53.20
2022-08-14T06:21:21.562Z,52.70
2022-08-14T06:23:50.527Z,51.60
2022-08-14T06:26:20.795Z,52.10
2022-08-14T06:28:52.140Z,50.90
2022-08-14T06:31:20.684Z,49.60
2022-08-14T06:35:04.398Z,50.40
2022-08-14T06:36:39.512Z,48.50
2022-08-14T06:39:08.174Z,47.20
2022-08-14T06:41:56.762Z,47.20
2022-08-14T06:44:32.775Z,47.10
2022-08-14T06:47:01.626Z,46.90
2022-08-14T06:49:31.026Z,46.90
2022-08-14T06:52:08.452Z,47.70
2022-08-14T06:54:36.627Z,47.50
2022-08-14T06:57:04.605Z,46.00
2022-08-14T06:59:33.813Z,45.40
2022-08-14T07:02:19.310Z,46.60
2022-08-14T07:05:06.289Z,45.10
2022-08-14T07:07:39.257Z,45.00
2022-08-14T07:10:08.135Z,44.70
2022-08-14T07:13:00.900Z,43.80
2022-08-14T07:15:33.759Z,45.20
2022-08-14T07:18:03.563Z,44.10
2022-08-14T07:20:33.079Z,43.80
2022-08-14T07:23:07.817Z,44.50
2022-08-14T07:25:37.444Z,46.00
2022-08-14T07:28:13.015Z,45.80
2022-08-14T07:30:51.616Z,43.90
2022-08-14T07:33:29.134Z,43.50
2022-08-14T07:36:00.574Z,43.20
2022-08-14T07:38:35.436Z,42.90
2022-08-14T07:41:11.631Z,42.50
2022-08-14T07:43:43.977Z,43.00
2022-08-14T07:46:14.929Z,43.60
2022-08-14T07:48:49.340Z,43.70
2022-08-14T07:51:22.394Z,43.50
2022-08-14T07:53:57.210Z,42.00
2022-08-14T07:56:44.250Z,40.60
2022-08-14T07:59:16.775Z,41.10
2022-08-14T08:01:48.116Z,39.80
2022-08-14T08:04:24.139Z,38.90
2022-08-14T08:06:54.823Z,37.30
2022-08-14T08:09:31.727Z,38.30
2022-08-14T08:12:01.760Z,36.30
2022-08-14T08:14:34.499Z,35.00
2022-08-14T08:17:24.349Z,35.50
2022-08-14T08:19:52.286Z,34.70
2022-08-14T08:22:23.742Z,34.40
2022-08-14T08:24:55.438Z,34.30
2022-08-14T08:27:25.769Z,34.80
2022-08-14T08:30:03.347Z,34.70
2022-08-14T08:32:40.262Z,34.40
2022-08-14T08:35:11.603Z,34.60
2022-08-14T08:37:43.605Z,34.10
2022-08-14T08:40:20.830Z,35.10
2022-08-14T08:42:53.214Z,35.30
2022-08-14T08:45:23.695Z,34.40
2022-08-14T08:47:55.498Z,34.50
2022-08-14T08:50:31.298Z,34.90
2022-08-14T08:53:02.129Z,35.20
2022-08-14T08:55:34.187Z,34.50
2022-08-14T08:58:05.555Z,34.20
2022-08-14T09:00:44.109Z,34.90
2022-08-14T09:03:20.484Z,34.00
2022-08-14T09:05:54.364Z,34.10
2022-08-14T09:08:31.719Z,33.90
2022-08-14T09:11:02.811Z,33.10
2022-08-14T09:13:48.367Z,33.60
2022-08-14T09:16:20.620Z,33.20
2022-08-14T09:18:49.976Z,32.90
2022-08-14T09:21:24.260Z,32.80
2022-08-14T09:24:28.867Z,33.10
2022-08-14T09:26:49.349Z,32.80
2022-08-14T09:29:19.884Z,32.80
2022-08-14T09:31:57.035Z,32.40
2022-08-14T09:34:58.161Z,32.30
2022-08-14T09:37:44.268Z,31.20
2022-08-14T09:40:25.053Z,29.60
2022-08-14T09:43:07.526Z,29.90
2022-08-14T09:45:52.540Z,30.60
2022-08-14T09:48:30.141Z,30.30
2022-08-14T09:54:13.485Z,31.00
2022-08-14T09:56:30.314Z,30.70
2022-08-14T09:59:10.662Z,30.10
2022-08-14T10:01:40.388Z,30.10
2022-08-14T10:04:36.681Z,29.60
2022-08-14T10:07:10.076Z,30.00
2022-08-14T10:09:59.503Z,30.30
2022-08-14T10:12:44.865Z,30.10
2022-08-14T10:15:18.450Z,30.20
2022-08-14T10:17:46.778Z,29.00
2022-08-14T10:20:40.648Z,29.80
2022-08-14T10:23:22.995Z,29.80
2022-08-14T10:25:53.106Z,30.10
2022-08-14T10:28:39.634Z,30.30
2022-08-14T10:31:25.514Z,29.10
2022-08-14T10:34:02.001Z,28.60
2022-08-14T10:36:34.992Z,27.80
2022-08-14T10:39:07.809Z,29.90
2022-08-14T10:41:46.439Z,29.50
2022-08-14T10:44:21.413Z,29.10
2022-08-14T10:47:41.510Z,29.00
2022-08-14T10:49:49.917Z,28.50
2022-08-14T10:52:24.161Z,28.10
2022-08-14T10:54:56.308Z,28.70
2022-08-14T10:57:26.712Z,28.80
2022-08-14T10:59:57.382Z,28.80
2022-08-14T11:02:45.055Z,28.50
2022-08-14T11:05:20.107Z,28.90
2022-08-14T11:07:59.743Z,28.50
2022-08-14T11:10:43.096Z,28.40
2022-08-14T11:13:12.134Z,28.70
2022-08-14T11:15:41.545Z,28.90
2022-08-14T11:18:12.067Z,28.40
2022-08-14T11:20:54.163Z,27.90
2022-08-14T11:23:37.774Z,28.50
2022-08-14T11:26:10.270Z,28.00
2022-08-14T11:28:47.859Z,27.80
2022-08-14T11:31:21.945Z,27.50
2022-08-14T11:33:51.235Z,28.00
2022-08-14T11:36:23.466Z,27.20
2022-08-14T11:38:51.476Z,27.20
2022-08-14T11:41:21.925Z,27.40
2022-08-14T11:43:58.550Z,28.20
2022-08-14T11:46:30.600Z,28.20
2022-08-14T11:49:06.785Z,27.90
2022-08-14T11:51:52.935Z,27.80
2022-08-14T11:54:34.351Z,27.60
2022-08-14T11:57:04.724Z,27.40
2022-08-14T11:59:33.833Z,27.30
2022-08-14T12:03:01.546Z,27.50
2022-08-14T12:05:00.145Z,28.20
2022-08-14T12:07:28.269Z,27.90
2022-08-14T12:09:58.567Z,27.90
2022-08-14T12:12:35.128Z,27.80
2022-08-14T12:15:05.329Z,27.80
2022-08-14T12:17:50.425Z,28.10
2022-08-14T12:20:29.910Z,28.30
2022-08-14T12:23:01.694Z,27.40
2022-08-14T12:25:30.139Z,27.50
2022-08-14T12:28:08.410Z,27.70
2022-08-14T12:30:39.585Z,28.10
2022-08-14T12:33:24.106Z,27.70
2022-08-14T12:35:56.407Z,28.10
2022-08-14T12:38:38.206Z,27.80
2022-08-14T12:41:20.498Z,27.70
2022-08-14T12:43:53.453Z,28.10
2022-08-14T12:46:30.326Z,28.60
2022-08-14T12:49:02.380Z,28.20
2022-08-14T12:51:31.372Z,28.20
2022-08-14T12:54:00.653Z,28.50
2022-08-14T12:56:33.708Z,28.20
2022-08-14T12:59:03.423Z,28.70
2022-08-14T13:01:59.314Z,28.20
2022-08-14T13:04:23.175Z,28.00
2022-08-14T13:06:52.715Z,27.50
2022-08-14T13:09:23.325Z,28.30
2022-08-14T13:11:59.203Z,27.70
2022-08-14T13:14:44.861Z,27.80
2022-08-14T13:17:13.575Z,27.40
2022-08-14T13:19:45.636Z,27.20
2022-08-14T13:22:32.364Z,26.80
2022-08-14T13:25:05.575Z,26.70
2022-08-14T13:27:39.412Z,26.20
2022-08-14T13:30:21.239Z,25.80
2022-08-14T13:32:53.023Z,25.00
2022-08-14T13:35:23.079Z,25.10
2022-08-14T13:37:52.365Z,25.90
2022-08-14T13:40:25.998Z,25.90
2022-08-14T13:42:57.065Z,26.70
2022-08-14T13:45:33.833Z,27.10
2022-08-14T13:48:28.437Z,26.90
2022-08-14T13:51:07.815Z,26.80
2022-08-14T13:54:06.928Z,26.30
2022-08-14T13:56:37.882Z,26.40
2022-08-14T13:59:07.374Z,26.80
2022-08-14T14:01:42.930Z,26.50
2022-08-14T14:04:18.913Z,26.10
2022-08-14T14:06:51.957Z,26.60
2022-08-14T14:09:26.948Z,26.60
2022-08-14T14:12:01.359Z,26.30
2022-08-14T14:14:50.898Z,26.30
2022-08-14T14:17:24.436Z,26.60
2022-08-14T14:19:52.722Z,26.10
2022-08-14T14:22:34.366Z,26.60
2022-08-14T14:25:14.420Z,26.70
2022-08-14T14:27:51.129Z,26.20
2022-08-14T14:30:52.784Z,26.40
2022-08-14T14:33:42.545Z,26.10
2022-08-14T14:36:05.196Z,26.70
2022-08-14T14:38:35.123Z,26.20
2022-08-14T14:41:05.685Z,26.70
2022-08-14T14:43:44.752Z,26.90
2022-08-14T14:46:15.685Z,27.10
2022-08-14T14:48:53.967Z,27.10
2022-08-14T14:51:22.837Z,26.90
2022-08-14T14:53:52.381Z,26.80
2022-08-14T14:56:48.005Z,26.90
2022-08-14T14:59:09.476Z,27.40
2022-08-14T15:01:39.601Z,27.60
2022-08-14T15:04:12.210Z,27.00
2022-08-14T15:06:49.089Z,27.00
2022-08-14T15:09:18.786Z,26.60
2022-08-14T15:11:48.244Z,27.10
2022-08-14T15:14:54.975Z,26.90
2022-08-14T15:17:06.456Z,27.10
2022-08-14T15:19:34.826Z,27.40
2022-08-14T15:22:02.787Z,27.90
2022-08-14T15:24:32.609Z,28.20
2022-08-14T15:27:06.684Z,28.10
2022-08-14T15:29:43.061Z,28.00
2022-08-14T15:32:11.426Z,28.70
2022-08-14T15:34:45.753Z,29.30
2022-08-14T15:37:22.107Z,29.80
2022-08-14T15:39:52.412Z,30.10
2022-08-14T15:42:22.931Z,30.40
2022-08-14T15:44:58.482Z,30.30
2022-08-14T15:47:31.450Z,31.10
2022-08-14T15:50:00.809Z,31.70
2022-08-14T15:52:32.789Z,32.20
2022-08-14T15:55:06.405Z,32.90
2022-08-14T15:57:34.836Z,33.10
2022-08-14T16:00:43.463Z,32.70
2022-08-14T16:03:12.719Z,32.50
2022-08-14T16:05:43.552Z,32.90
2022-08-14T16:08:28.869Z,32.50
2022-08-14T16:11:00.338Z,32.40
2022-08-14T16:13:41.372Z,32.60
2022-08-14T16:16:47.433Z,32.80
2022-08-14T16:19:09.822Z,33.00
2022-08-14T16:21:40.830Z,32.40
2022-08-14T16:24:32.407Z,32.60
2022-08-14T16:27:03.442Z,32.70
2022-08-14T16:29:34.768Z,32.70
2022-08-14T16:32:35.725Z,32.60
2022-08-14T16:34:54.920Z,32.50
2022-08-14T16:37:31.100Z,32.20
2022-08-14T16:40:02.620Z,32.50
2022-08-14T16:42:39.482Z,32.30
2022-08-14T16:45:24.613Z,32.60
2022-08-14T16:47:52.435Z,32.40
2022-08-14T16:50:40.384Z,32.40
2022-08-14T16:53:09.702Z,32.60
2022-08-14T16:55:53.843Z,32.50
2022-08-14T16:58:30.405Z,32.70
2022-08-14T17:01:22.661Z,33.10
2022-08-14T17:04:03.375Z,33.70
2022-08-14T17:06:42.963Z,34.10
2022-08-14T17:09:43.342Z,34.40
2022-08-14T17:12:28.669Z,34.70
2022-08-14T17:15:10.089Z,35.10
2022-08-14T17:17:50.069Z,34.30
2022-08-14T17:20:53.454Z,33.90
2022-08-14T17:23:15.022Z,34.20
2022-08-14T17:25:49.458Z,34.50
2022-08-14T17:31:10.337Z,35.10
2022-08-14T17:33:44.611Z,35.20
2022-08-14T17:36:22.817Z,34.80
2022-08-14T17:38:59.896Z,34.60
2022-08-14T17:41:36.018Z,34.70
2022-08-14T17:44:22.056Z,34.40
2022-08-14T17:47:05.522Z,34.40
2022-08-14T17:49:37.467Z,35.10
2022-08-14T17:52:17.167Z,35.50
2022-08-14T17:54:52.945Z,36.50
2022-08-14T17:57:28.356Z,38.70
2022-08-14T17:59:59.080Z,39.50
2022-08-14T18:02:31.057Z,40.00
2022-08-14T18:05:03.049Z,40.20
2022-08-14T18:07:59.341Z,40.30
2022-08-14T18:10:51.882Z,40.40
2022-08-14T18:13:10.557Z,40.60
2022-08-14T18:15:41.340Z,40.80
2022-08-14T18:18:12.958Z,41.00
2022-08-14T18:21:42.678Z,40.90
2022-08-14T18:23:31.875Z,41.00
2022-08-14T18:26:00.596Z,40.90
2022-08-14T18:28:50.866Z,41.20
2022-08-14T18:31:43.416Z,41.30
2022-08-14T18:34:32.177Z,41.50
2022-08-14T18:37:14.230Z,41.60
2022-08-14T18:40:02.267Z,41.80
2022-08-14T18:42:44.117Z,42.10
2022-08-14T18:45:16.080Z,42.70
2022-08-14T18:48:28.683Z,43.10
2022-08-14T18:51:45.740Z,43.60
2022-08-14T18:54:29.932Z,44.20
2022-08-14T18:57:03.206Z,44.50
2022-08-14T18:59:42.300Z,44.50
2022-08-14T19:02:44.045Z,44.80
2022-08-14T19:05:13.400Z,44.90
2022-08-14T19:07:43.763Z,45.10
2022-08-14T19:10:37.686Z,45.30
2022-08-14T19:13:13.102Z,45.20
2022-08-14T19:15:43.807Z,45.50
2022-08-14T19:18:25.941Z,45.50
2022-08-14T19:20:58.410Z,45.80
2022-08-14T19:23:40.576Z,45.80
2022-08-14T19:26:34.731Z,45.90
2022-08-14T19:29:38.365Z,45.90
2022-08-14T19:32:39.357Z,45.90
2022-08-14T19:35:49.942Z,46.10
2022-08-14T19:38:48.118Z,46.30
2022-08-14T19:41:17.596Z,46.30
2022-08-14T19:43:55.276Z,46.40
2022-08-14T19:46:38.741Z,46.60
2022-08-14T19:49:14.649Z,46.80
2022-08-14T19:51:51.151Z,46.90
2022-08-14T19:54:29.717Z,47.20
2022-08-14T19:56:58.877Z,47.10
2022-08-14T19:59:27.795Z,47.00
2022-08-14T20:02:24.725Z,47.10
2022-08-14T20:04:59.298Z,47.00
2022-08-14T20:07:59.733Z,47.90
2022-08-14T20:11:06.404Z,48.20
2022-08-14T20:13:32.782Z,48.40
2022-08-14T20:16:12.359Z,48.50
2022-08-14T20:18:51.739Z,48.60
2022-08-14T20:21:19.907Z,48.50
2022-08-14T20:23:49.463Z,48.70
2022-08-14T20:26:31.781Z,48.60
2022-08-14T20:29:07.372Z,48.60
2022-08-14T20:31:38.558Z,48.60
2022-08-14T20:34:19.099Z,48.60
2022-08-14T20:37:02.278Z,48.60
2022-08-14T20:39:34.391Z,48.60
2022-08-14T20:42:29.744Z,48.50
2022-08-14T20:45:18.853Z,48.50
2022-08-14T20:47:58.440Z,48.60
2022-08-14T20:50:30.270Z,48.90
2022-08-14T20:52:58.590Z,49.30
2022-08-14T20:55:29.888Z,49.30
2022-08-14T20:58:09.550Z,49.80
2022-08-14T21:00:51.779Z,49.60
2022-08-14T21:03:57.008Z,49.50
2022-08-14T21:06:29.508Z,49.50
2022-08-14T21:09:02.169Z,49.60
2022-08-14T21:11:31.138Z,49.80
2022-08-14T21:14:19.435Z,49.60
2022-08-14T21:16:58.497Z,50.00
2022-08-14T21:19:29.320Z,50.50
2022-08-14T21:22:01.426Z,51.00
2022-08-14T21:24:39.664Z,51.90
2022-08-14T21:27:20.441Z,53.20
2022-08-14T21:29:55.607Z,55.40
2022-08-14T21:32:34.911Z,58.40
2022-08-14T21:35:08.165Z,59.70
2022-08-14T21:37:46.107Z,61.60
2022-08-14T21:40:39.793Z,61.60
2022-08-14T21:43:06.057Z,62.30
2022-08-14T21:45:53.327Z,62.20
2022-08-14T21:48:25.216Z,62.50
2022-08-14T21:51:02.057Z,62.90
2022-08-14T21:53:58.380Z,63.10
2022-08-14T21:56:38.731Z,63.20
2022-08-14T21:59:10.088Z,65.80
2022-08-14T22:02:01.195Z,67.20
2022-08-14T22:04:33.503Z,67.50
2022-08-14T22:07:05.795Z,68.80
2022-08-14T22:09:36.539Z,70.90
2022-08-14T22:12:07.182Z,72.50
2022-08-14T22:14:43.385Z,72.10
2022-08-14T22:17:17.152Z,71.10
2022-08-14T22:19:48.820Z,72.30
2022-08-14T22:22:23.834Z,71.50
2022-08-14T22:25:00.405Z,71.50
2022-08-14T22:27:32.155Z,69.70
2022-08-14T22:30:01.274Z,69.50
2022-08-14T22:32:56.118Z,69.00
2022-08-14T22:35:18.636Z,70.60
2022-08-14T22:38:34.879Z,69.10
2022-08-14T22:41:00.650Z,68.60
2022-08-14T22:43:32.712Z,69.30
2022-08-14T22:46:03.274Z,68.60
2022-08-14T22:48:42.161Z,68.90
2022-08-14T22:51:10.319Z,68.80
2022-08-14T22:53:43.750Z,69.90
2022-08-14T22:56:20.652Z,69.60
2022-08-14T22:58:53.984Z,69.70
2022-08-14T23:01:56.867Z,68.60
2022-08-14T23:04:34.347Z,68.00
2022-08-14T23:07:05.255Z,67.70
2022-08-14T23:09:38.507Z,70.40
2022-08-14T23:12:27.409Z,71.80
2022-08-14T23:14:57.253Z,73.20
2022-08-14T23:17:26.475Z,74.90
2022-08-14T23:19:56.319Z,73.30
2022-08-14T23:22:26.130Z,72.80
2022-08-14T23:24:57.846Z,72.90
2022-08-14T23:27:31.972Z,74.00
2022-08-14T23:30:31.809Z,76.50
2022-08-14T23:33:03.264Z,77.50
2022-08-14T23:35:33.057Z,76.80
2022-08-14T23:38:02.783Z,76.80
2022-08-14T23:40:32.126Z,77.80
2022-08-14T23:43:03.089Z,76.80
2022-08-14T23:45:36.749Z,75.50
2022-08-14T23:48:09.916Z,75.10
2022-08-14T23:50:41.422Z,73.20
2022-08-14T23:53:28.623Z,73.30
2022-08-14T23:56:09.563Z,73.40
2022-08-14T23:58:40.386Z,74.30
